createdAt,value
2018-05-29T00:02:10.799Z,99981.38
2018-05-29T00:04:38.303Z,99982.98
2018-05-29T00:07:05.784Z,99984.58
2018-05-29T00:09:33.297Z,99976.78
2018-05-29T00:12:18.818Z,99979.71
2018-05-29T00:14:46.307Z,99986.53
2018-05-29T00:17:13.795Z,99986.13
2018-05-29T00:19:41.290Z,99983.14
2018-05-29T00:22:08.766Z,99978.84
2018-05-29T00:24:36.234Z,99978.13
2018-05-29T00:27:03.743Z,99964.86
2018-05-29T00:29:31.208Z,99971.80
2018-05-29T00:31:58.689Z,99969.87
2018-05-29T00:34:26.179Z,99966.94
2018-05-29T00:36:53.675Z,99963.22
2018-05-29T00:39:21.147Z,99956.64
2018-05-29T00:41:48.645Z,99954.12
2018-05-29T00:44:16.125Z,99954.34
2018-05-29T00:46:43.614Z,99948.25
2018-05-29T00:49:11.085Z,99947.04
2018-05-29T00:51:38.582Z,99940.95
2018-05-29T00:54:06.991Z,99938.34
2018-05-29T00:56:34.529Z,99938.38
2018-05-29T00:59:01.993Z,99940.72
2018-05-29T01:01:29.489Z,99932.91
2018-05-29T01:03:56.963Z,99940.93
2018-05-29T01:06:24.426Z,99937.69
2018-05-29T01:08:51.910Z,99939.47
2018-05-29T01:11:19.378Z,99939.96
2018-05-29T01:13:46.874Z,99933.70
2018-05-29T01:16:14.337Z,99939.30
2018-05-29T01:18:41.838Z,99937.14
2018-05-29T01:21:09.319Z,99939.55
2018-05-29T01:23:36.810Z,99936.29
2018-05-29T01:26:04.287Z,99938.55
2018-05-29T01:28:31.779Z,99934.27
2018-05-29T01:30:59.251Z,99940.30
2018-05-29T01:33:26.746Z,99941.09
2018-05-29T01:35:54.229Z,99933.64
2018-05-29T01:38:21.761Z,99932.32
2018-05-29T01:40:49.254Z,99922.97
2018-05-29T01:43:16.730Z,99920.05
2018-05-29T01:45:44.219Z,99921.66
2018-05-29T01:48:11.700Z,99920.42
2018-05-29T01:50:39.232Z,99929.20
2018-05-29T01:53:06.710Z,99932.89
2018-05-29T01:55:34.258Z,99937.59
2018-05-29T01:58:01.732Z,99922.55
2018-05-29T02:00:29.218Z,99923.16
2018-05-29T02:02:56.702Z,99921.46
2018-05-29T02:05:24.198Z,99920.64
2018-05-29T02:07:51.681Z,99918.56
2018-05-29T02:10:19.172Z,99911.58
2018-05-29T02:12:46.654Z,99913.62
2018-05-29T02:15:14.154Z,99911.60
2018-05-29T02:17:41.622Z,99910.88
2018-05-29T02:20:09.117Z,99906.14
2018-05-29T02:22:36.604Z,99899.52
2018-05-29T02:25:04.295Z,99901.47
2018-05-29T02:27:31.785Z,99896.48
2018-05-29T02:29:59.271Z,99898.78
2018-05-29T02:32:26.771Z,99912.94
2018-05-29T02:34:54.242Z,99907.05
2018-05-29T02:37:21.734Z,99904.75
2018-05-29T02:39:49.223Z,99902.37
2018-05-29T02:42:17.473Z,99907.04
2018-05-29T02:44:44.956Z,99902.02
2018-05-29T02:47:12.458Z,99899.17
2018-05-29T02:49:39.936Z,99897.34
2018-05-29T02:52:07.424Z,99895.97
2018-05-29T02:54:34.916Z,99899.91
2018-05-29T02:57:02.431Z,99893.83
2018-05-29T02:59:29.898Z,99897.09
2018-05-29T03:01:57.377Z,99891.52
2018-05-29T03:04:24.889Z,99888.17
2018-05-29T03:06:52.373Z,99886.17
2018-05-29T03:09:19.862Z,99888.45
2018-05-29T03:11:47.342Z,99889.29
2018-05-29T03:14:14.853Z,99894.06
2018-05-29T03:16:42.322Z,99889.95
2018-05-29T03:19:09.839Z,99888.61
2018-05-29T03:21:37.313Z,99889.22
2018-05-29T03:24:04.821Z,99890.76
2018-05-29T03:26:32.359Z,99886.47
2018-05-29T03:28:59.817Z,99889.12
2018-05-29T03:31:27.297Z,99887.17
2018-05-29T03:33:54.801Z,99894.13
2018-05-29T03:36:22.718Z,99897.56
2018-05-29T03:38:50.190Z,99905.60
2018-05-29T03:41:17.685Z,99918.82
2018-05-29T03:43:45.167Z,99920.30
2018-05-29T03:46:12.659Z,99921.44
2018-05-29T03:48:40.137Z,99921.20
2018-05-29T03:51:07.643Z,99919.66
2018-05-29T03:53:35.130Z,99928.38
2018-05-29T03:56:02.623Z,99933.87
2018-05-29T03:58:30.102Z,99931.95
2018-05-29T04:00:58.457Z,99927.09
2018-05-29T04:03:25.934Z,99926.59
2018-05-29T04:05:53.728Z,99926.98
2018-05-29T04:08:21.213Z,99925.50
2018-05-29T04:10:48.698Z,99927.22
2018-05-29T04:13:16.204Z,99922.23
2018-05-29T04:15:43.679Z,99918.84
2018-05-29T04:18:11.183Z,99919.39
2018-05-29T04:20:38.655Z,99925.66
2018-05-29T04:23:06.178Z,99919.66
2018-05-29T04:25:33.674Z,99924.37
2018-05-29T04:28:01.174Z,99911.12
2018-05-29T04:30:28.646Z,99915.73
2018-05-29T04:32:56.151Z,99921.72
2018-05-29T04:35:23.629Z,99920.99
2018-05-29T04:37:51.121Z,99923.63
2018-05-29T04:40:18.596Z,99922.13
2018-05-29T04:42:46.106Z,99920.41
2018-05-29T04:45:13.587Z,99912.55
2018-05-29T04:47:41.086Z,99907.98
2018-05-29T04:50:08.571Z,99908.50
2018-05-29T04:52:36.038Z,99911.81
2018-05-29T04:55:03.528Z,99902.93
2018-05-29T04:57:31.979Z,99906.23
2018-05-29T04:59:59.475Z,99899.95
2018-05-29T05:02:27.055Z,99910.00
2018-05-29T05:04:54.505Z,99903.27
2018-05-29T05:07:21.998Z,99912.27
2018-05-29T05:09:49.494Z,99907.73
2018-05-29T05:12:16.966Z,99901.75
2018-05-29T05:14:44.476Z,99902.68
2018-05-29T05:17:11.950Z,99905.18
2018-05-29T05:19:39.446Z,99904.80
2018-05-29T05:22:07.191Z,99888.48
2018-05-29T05:24:35.095Z,99889.94
2018-05-29T05:27:02.970Z,99879.81
2018-05-29T05:29:31.338Z,99879.84
2018-05-29T05:31:59.087Z,99880.63
2018-05-29T05:34:26.601Z,99869.72
2018-05-29T05:36:54.936Z,99883.47
2018-05-29T05:39:23.595Z,99891.74
2018-05-29T05:41:51.571Z,99888.86
2018-05-29T05:44:19.114Z,99894.97
2018-05-29T05:46:46.970Z,99892.84
2018-05-29T05:49:14.689Z,99889.58
2018-05-29T05:51:42.610Z,99887.09
2018-05-29T05:54:10.138Z,99888.25
2018-05-29T05:56:37.666Z,99888.70
2018-05-29T05:59:05.166Z,99882.47
2018-05-29T06:01:33.577Z,99887.54
2018-05-29T06:04:01.335Z,99897.25
2018-05-29T06:06:28.879Z,99888.08
2018-05-29T06:08:56.395Z,99890.52
2018-05-29T06:11:24.003Z,99888.22
2018-05-29T06:13:51.487Z,99892.89
2018-05-29T06:16:19.243Z,99889.81
2018-05-29T06:18:47.307Z,99896.51
2018-05-29T06:21:16.079Z,99896.44
2018-05-29T06:23:44.311Z,99904.46
2018-05-29T06:26:12.046Z,99913.48
2018-05-29T06:28:39.807Z,99910.10
2018-05-29T06:31:08.137Z,99915.85
2018-05-29T06:33:35.686Z,99905.95
2018-05-29T06:36:03.193Z,99912.45
2018-05-29T06:38:31.112Z,99908.89
2018-05-29T06:40:58.898Z,99908.84
2018-05-29T06:43:26.429Z,99909.03
2018-05-29T06:57:24.974Z,99914.77
2018-05-29T06:59:53.849Z,99915.77
2018-05-29T07:02:21.588Z,99913.45
2018-05-29T07:04:49.820Z,99906.83
2018-05-29T07:07:17.375Z,99914.86
2018-05-29T07:09:45.130Z,99909.84
2018-05-29T07:12:14.019Z,99912.09
2018-05-29T07:14:42.429Z,99910.08
2018-05-29T07:17:10.601Z,99908.00
2018-05-29T07:19:38.342Z,99900.83
2018-05-29T07:22:06.258Z,99907.56
2018-05-29T07:24:33.895Z,99909.64
2018-05-29T07:27:01.755Z,99902.98
2018-05-29T07:29:29.307Z,99904.09
2018-05-29T07:31:56.843Z,99891.86
2018-05-29T07:34:24.320Z,99882.64
2018-05-29T07:36:51.927Z,99879.00
2018-05-29T07:39:19.492Z,99867.12
2018-05-29T07:41:47.009Z,99879.41
2018-05-29T07:44:15.677Z,99869.96
2018-05-29T07:46:43.682Z,99874.53
2018-05-29T07:49:11.442Z,99871.94
2018-05-29T07:51:38.987Z,99866.03
2018-05-29T07:54:06.710Z,99861.88
2018-05-29T07:56:35.238Z,99852.33
2018-05-29T07:59:02.732Z,99855.11
2018-05-29T08:01:30.303Z,99857.24
2018-05-29T08:03:59.052Z,99845.58
2018-05-29T08:06:27.063Z,99849.39
2018-05-29T08:08:55.298Z,99849.95
2018-05-29T08:11:22.860Z,99849.84
2018-05-29T08:13:50.683Z,99853.33
2018-05-29T08:16:18.461Z,99853.41
2018-05-29T08:18:46.473Z,99843.47
2018-05-29T08:21:14.765Z,99849.29
2018-05-29T08:23:43.125Z,99845.70
2018-05-29T08:26:11.050Z,99837.66
2018-05-29T08:28:38.910Z,99838.04
2018-05-29T08:31:07.492Z,99831.31
2018-05-29T08:33:35.035Z,99833.64
2018-05-29T08:36:02.618Z,99836.38
2018-05-29T08:38:31.499Z,99823.66
2018-05-29T08:40:59.026Z,99830.33
2018-05-29T08:43:32.879Z,99826.48
2018-05-29T08:46:01.514Z,99828.80
2018-05-29T08:48:29.307Z,99826.75
2018-05-29T08:50:57.269Z,99829.85
2018-05-29T08:53:25.333Z,99823.80
2018-05-29T08:55:53.072Z,99821.14
2018-05-29T08:58:20.872Z,99818.64
2018-05-29T09:00:49.488Z,99813.59
2018-05-29T09:03:17.259Z,99814.81
2018-05-29T09:05:45.641Z,99810.92
2018-05-29T09:08:13.878Z,99812.46
2018-05-29T09:10:41.384Z,99805.73
2018-05-29T09:13:08.971Z,99804.53
2018-05-29T09:15:37.188Z,99805.80
2018-05-29T09:18:05.193Z,99809.09
2018-05-29T09:20:33.899Z,99807.22
2018-05-29T09:23:01.647Z,99806.84
2018-05-29T09:25:29.362Z,99812.12
2018-05-29T09:27:57.718Z,99806.05
2018-05-29T09:30:25.435Z,99809.11
2018-05-29T09:32:53.373Z,99811.69
2018-05-29T09:35:21.374Z,99809.50
2018-05-29T09:37:49.368Z,99808.61
2018-05-29T09:40:17.141Z,99805.03
2018-05-29T09:42:44.686Z,99808.82
2018-05-29T09:45:15.630Z,99807.39
2018-05-29T09:47:43.403Z,99803.38
2018-05-29T09:50:10.963Z,99805.83
2018-05-29T09:52:38.685Z,99807.06
2018-05-29T09:55:06.685Z,99802.92
2018-05-29T09:57:34.532Z,99797.44
2018-05-29T10:00:06.007Z,99796.52
2018-05-29T10:02:33.863Z,99791.92
2018-05-29T10:05:02.403Z,99793.42
2018-05-29T10:07:30.160Z,99783.08
2018-05-29T10:09:59.229Z,99787.45
2018-05-29T10:12:27.159Z,99790.03
2018-05-29T10:14:55.828Z,99784.75
2018-05-29T10:17:23.567Z,99785.79
2018-05-29T10:19:52.124Z,99792.56
2018-05-29T10:22:20.675Z,99784.56
2018-05-29T10:24:48.484Z,99784.88
2018-05-29T10:27:16.513Z,99776.66
2018-05-29T10:29:44.301Z,99788.44
2018-05-29T10:32:12.714Z,99771.36
2018-05-29T10:34:42.093Z,99776.16
2018-05-29T10:37:09.678Z,99770.08
2018-05-29T10:39:37.550Z,99773.31
2018-05-29T10:42:05.258Z,99771.29
2018-05-29T10:44:33.317Z,99772.80
2018-05-29T10:47:01.722Z,99767.93
2018-05-29T10:49:29.330Z,99767.25
2018-05-29T10:51:57.083Z,99766.13
2018-05-29T10:54:24.733Z,99761.92
2018-05-29T10:56:52.333Z,99756.24
2018-05-29T10:59:20.334Z,99759.05
2018-05-29T11:01:47.802Z,99753.88
2018-05-29T11:04:15.567Z,99747.48
2018-05-29T11:06:43.309Z,99751.53
2018-05-29T11:09:11.444Z,99750.93
2018-05-29T11:11:39.327Z,99749.28
2018-05-29T11:14:07.198Z,99745.91
2018-05-29T11:16:34.946Z,99747.93
2018-05-29T11:19:03.512Z,99733.69
2018-05-29T11:21:32.240Z,99737.13
2018-05-29T11:23:59.789Z,99729.91
2018-05-29T11:26:27.675Z,99727.28
2018-05-29T11:28:55.466Z,99722.69
2018-05-29T11:31:23.311Z,99726.03
2018-05-29T11:33:51.561Z,99719.50
2018-05-29T11:36:19.500Z,99719.33
2018-05-29T11:38:47.054Z,99708.27
2018-05-29T11:41:14.579Z,99705.82
2018-05-29T11:43:42.454Z,99694.83
2018-05-29T11:46:10.018Z,99685.28
2018-05-29T11:48:38.408Z,99684.88
2018-05-29T11:51:05.870Z,99683.03
2018-05-29T11:53:33.426Z,99679.12
2018-05-29T11:56:01.360Z,99678.55
2018-05-29T11:58:28.966Z,99669.45
2018-05-29T12:00:56.546Z,99661.48
2018-05-29T12:03:24.310Z,99664.00
2018-05-29T12:05:51.912Z,99654.84
2018-05-29T12:08:19.438Z,99654.83
2018-05-29T12:10:47.034Z,99655.84
2018-05-29T12:13:14.815Z,99657.66
2018-05-29T12:15:42.622Z,99660.34
2018-05-29T12:18:10.467Z,99666.52
2018-05-29T12:20:38.285Z,99670.09
2018-05-29T12:23:06.662Z,99668.61
2018-05-29T12:25:34.896Z,99664.06
2018-05-29T12:28:05.483Z,99674.02
2018-05-29T12:30:34.213Z,99673.98
2018-05-29T12:33:02.891Z,99674.59
2018-05-29T12:35:30.792Z,99686.09
2018-05-29T12:37:59.515Z,99678.39
2018-05-29T12:40:27.223Z,99681.11
2018-05-29T12:42:55.502Z,99676.70
2018-05-29T12:45:24.310Z,99672.63
2018-05-29T12:47:53.553Z,99667.13
2018-05-29T12:50:21.446Z,99660.72
2018-05-29T12:52:50.177Z,99655.53
2018-05-29T12:55:20.002Z,99658.52
2018-05-29T12:57:47.959Z,99658.78
2018-05-29T13:00:16.123Z,99650.68
2018-05-29T13:02:45.759Z,99647.42
2018-05-29T13:05:14.364Z,99633.96
2018-05-29T13:10:52.291Z,99647.06
2018-05-29T13:13:19.874Z,99670.59
2018-05-29T13:15:47.371Z,99674.44
2018-05-29T13:18:15.039Z,99670.34
2018-05-29T13:20:42.681Z,99666.89
2018-05-29T13:23:10.204Z,99657.30
2018-05-29T13:25:38.013Z,99668.39
2018-05-29T13:28:05.645Z,99685.42
2018-05-29T13:30:33.331Z,99726.78
2018-05-29T13:33:00.899Z,99757.34
2018-05-29T13:35:28.691Z,99775.27
2018-05-29T13:37:56.216Z,99786.70
2018-05-29T13:40:23.810Z,99829.36
2018-05-29T13:42:51.393Z,99762.75
2018-05-29T13:45:19.421Z,99749.34
2018-05-29T13:47:47.045Z,99738.94
2018-05-29T13:50:22.996Z,99770.08
2018-05-29T13:52:50.591Z,99833.81
2018-05-29T13:55:18.129Z,99820.28
2018-05-29T13:57:45.883Z,99796.06
2018-05-29T14:00:13.631Z,99784.49
2018-05-29T14:02:45.016Z,99792.97
2018-05-29T14:05:12.582Z,99781.52
2018-05-29T14:07:40.251Z,99804.09
2018-05-29T14:10:12.815Z,99789.93
2018-05-29T14:12:40.502Z,99776.10
2018-05-29T14:15:08.228Z,99775.61
2018-05-29T14:17:36.265Z,99793.53
2018-05-29T14:20:03.866Z,99802.37
2018-05-29T14:22:31.640Z,99781.49
2018-05-29T14:24:59.964Z,99773.50
2018-05-29T14:27:27.608Z,99743.50
2018-05-29T14:29:55.455Z,99738.20
2018-05-29T14:32:33.244Z,99761.55
2018-05-29T14:35:00.943Z,99770.09
2018-05-29T14:40:20.007Z,99785.91
2018-05-29T14:42:48.537Z,99784.83
2018-05-29T14:45:16.929Z,99782.77
2018-05-29T14:47:44.594Z,99785.61
2018-05-29T14:50:12.102Z,99780.80
2018-05-29T14:52:39.690Z,99777.15
2018-05-29T14:55:07.431Z,99791.92
2018-05-29T14:57:34.946Z,99788.88
2018-05-29T15:00:02.424Z,99780.52
2018-05-29T15:02:29.930Z,99776.96
2018-05-29T15:04:57.418Z,99778.93
2018-05-29T15:07:24.916Z,99767.36
2018-05-29T15:09:52.398Z,99760.00
2018-05-29T15:12:19.866Z,99754.66
2018-05-29T15:14:47.350Z,99761.30
2018-05-29T15:17:14.826Z,99758.83
2018-05-29T15:19:42.319Z,99751.19
2018-05-29T15:22:09.804Z,99752.20
2018-05-29T15:24:37.303Z,99752.70
2018-05-29T15:27:04.771Z,99746.92
2018-05-29T15:29:32.289Z,99742.05
2018-05-29T15:31:59.754Z,99730.81
2018-05-29T15:34:27.249Z,99729.75
2018-05-29T15:36:54.733Z,99739.91
2018-05-29T15:39:22.252Z,99746.11
2018-05-29T15:41:49.739Z,99754.34
2018-05-29T15:44:17.250Z,99750.92
2018-05-29T15:46:45.244Z,99744.75
2018-05-29T15:49:12.857Z,99753.84
2018-05-29T15:51:40.403Z,99751.45
2018-05-29T15:54:08.330Z,99751.48
2018-05-29T15:56:35.809Z,99759.30
2018-05-29T15:59:03.683Z,99762.62
2018-05-29T16:01:31.147Z,99767.88
2018-05-29T16:03:58.638Z,99767.70
2018-05-29T16:06:26.117Z,99783.83
2018-05-29T16:08:53.611Z,99793.63
2018-05-29T16:11:22.999Z,99793.75
2018-05-29T16:13:50.498Z,99807.66
2018-05-29T16:16:17.975Z,99816.92
2018-05-29T16:18:45.466Z,99823.23
2018-05-29T16:21:12.938Z,99825.48
2018-05-29T16:23:40.430Z,99821.86
2018-05-29T16:26:07.934Z,99823.56
2018-05-29T16:28:35.438Z,99821.04
2018-05-29T16:31:02.920Z,99819.80
2018-05-29T16:33:30.395Z,99820.56
2018-05-29T16:35:57.935Z,99817.00
2018-05-29T16:38:25.430Z,99820.73
2018-05-29T16:40:52.950Z,99819.19
2018-05-29T16:43:20.459Z,99814.30
2018-05-29T16:45:48.021Z,99810.76
2018-05-29T16:48:15.559Z,99802.77
2018-05-29T16:50:43.136Z,99804.18
2018-05-29T16:53:10.668Z,99790.09
2018-05-29T16:55:38.294Z,99785.39
2018-05-29T16:58:05.815Z,99773.48
2018-05-29T17:00:33.323Z,99773.13
2018-05-29T17:03:00.892Z,99765.91
2018-05-29T17:05:28.479Z,99763.21
2018-05-29T17:07:56.034Z,99748.16
2018-05-29T17:10:23.865Z,99743.52
2018-05-29T17:12:51.512Z,99739.09
2018-05-29T17:15:19.128Z,99740.33
2018-05-29T17:17:46.657Z,99735.80
2018-05-29T17:20:14.312Z,99729.83
2018-05-29T17:22:41.861Z,99729.82
2018-05-29T17:25:09.427Z,99718.73
2018-05-29T17:27:37.327Z,99709.84
2018-05-29T17:30:05.572Z,99710.84
2018-05-29T17:32:33.748Z,99701.26
2018-05-29T17:35:01.372Z,99689.53
2018-05-29T17:37:28.897Z,99692.16
2018-05-29T17:39:56.417Z,99693.43
2018-05-29T17:42:23.905Z,99697.69
2018-05-29T17:44:51.427Z,99701.08
2018-05-29T17:47:18.935Z,99704.81
2018-05-29T17:49:46.454Z,99705.27
2018-05-29T17:52:13.927Z,99697.44
2018-05-29T17:54:41.414Z,99694.33
2018-05-29T17:57:08.915Z,99698.81
2018-05-29T17:59:36.386Z,99698.18
2018-05-29T18:02:03.887Z,99694.98
2018-05-29T18:04:31.358Z,99704.32
2018-05-29T18:06:59.021Z,99708.28
2018-05-29T18:09:26.574Z,99716.05
2018-05-29T18:11:54.187Z,99723.63
2018-05-29T18:14:21.767Z,99729.33
2018-05-29T18:16:49.436Z,99738.19
2018-05-29T18:19:17.115Z,99738.88
2018-05-29T18:21:44.772Z,99751.02
2018-05-29T18:24:12.254Z,99759.73
2018-05-29T18:26:39.755Z,99760.05
2018-05-29T18:29:07.269Z,99765.05
2018-05-29T18:31:34.759Z,99774.66
2018-05-29T18:34:02.235Z,99767.65
2018-05-29T18:36:29.734Z,99769.86
2018-05-29T18:38:57.972Z,99782.18
2018-05-29T18:41:25.611Z,99789.96
2018-05-29T18:43:53.235Z,99791.16
2018-05-29T18:46:21.434Z,99787.36
2018-05-29T18:48:48.964Z,99797.10
2018-05-29T18:51:16.497Z,99802.73
2018-05-29T18:53:43.965Z,99809.95
2018-05-29T18:56:11.457Z,99813.69
2018-05-29T18:58:38.929Z,99817.37
2018-05-29T19:01:06.425Z,99823.30
2018-05-29T19:03:33.989Z,99823.63
2018-05-29T19:06:01.464Z,99829.53
2018-05-29T19:08:29.676Z,99821.23
2018-05-29T19:10:57.182Z,99828.06
2018-05-29T19:13:24.721Z,99829.22
2018-05-29T19:15:52.280Z,99835.24
2018-05-29T19:18:19.838Z,99842.20
2018-05-29T19:20:47.417Z,99842.05
2018-05-29T19:23:14.960Z,99843.79
2018-05-29T19:25:42.458Z,99845.39
2018-05-29T19:28:09.987Z,99846.44
2018-05-29T19:30:37.527Z,99846.08
2018-05-29T19:33:05.098Z,99852.83
2018-05-29T19:35:32.631Z,99853.16
2018-05-29T19:38:00.169Z,99857.06
2018-05-29T19:40:27.720Z,99858.03
2018-05-29T19:42:55.287Z,99855.78
2018-05-29T19:45:22.914Z,99870.59
2018-05-29T19:47:50.475Z,99869.81
2018-05-29T19:50:17.986Z,99873.06
2018-05-29T19:52:45.569Z,99871.28
2018-05-29T19:55:13.134Z,99876.46
2018-05-29T19:57:40.706Z,99869.58
2018-05-29T20:00:08.245Z,99875.99
2018-05-29T20:02:35.810Z,99875.77
2018-05-29T20:05:03.363Z,99870.19
2018-05-29T20:07:30.911Z,99879.32
2018-05-29T20:09:58.504Z,99885.50
2018-05-29T20:12:26.054Z,99886.03
2018-05-29T20:14:53.560Z,99893.34
2018-05-29T20:17:31.029Z,99891.22
2018-05-29T20:19:58.515Z,99879.54
2018-05-29T20:22:26.007Z,99877.04
2018-05-29T20:24:53.573Z,99881.33
2018-05-29T20:27:21.065Z,99876.07
2018-05-29T20:29:48.550Z,99882.22
2018-05-29T20:32:16.062Z,99872.51
2018-05-29T20:34:43.556Z,99872.59
2018-05-29T20:37:11.042Z,99866.94
2018-05-29T20:39:38.531Z,99864.34
2018-05-29T20:42:06.002Z,99859.89
2018-05-29T20:44:33.501Z,99859.17
2018-05-29T20:47:00.982Z,99857.73
2018-05-29T20:49:28.478Z,99857.50
2018-05-29T20:51:55.949Z,99855.42
2018-05-29T20:54:23.448Z,99849.29
2018-05-29T20:56:50.922Z,99852.83
2018-05-29T20:59:18.417Z,99850.25
2018-05-29T21:01:45.909Z,99847.66
2018-05-29T21:04:13.422Z,99835.67
2018-05-29T21:06:40.894Z,99834.37
2018-05-29T21:09:08.360Z,99826.34
2018-05-29T21:11:35.862Z,99808.52
2018-05-29T21:14:03.366Z,99794.13
2018-05-29T21:16:30.859Z,99791.38
2018-05-29T21:18:58.330Z,99796.28
2018-05-29T21:21:25.825Z,99792.48
2018-05-29T21:23:53.321Z,99798.55
2018-05-29T21:26:20.809Z,99800.66
2018-05-29T21:28:48.297Z,99804.45
2018-05-29T21:31:15.802Z,99801.69
2018-05-29T21:33:43.282Z,99801.49
2018-05-29T21:36:10.793Z,99807.33
2018-05-29T21:38:38.270Z,99809.66
2018-05-29T21:41:05.761Z,99813.77
2018-05-29T21:43:33.238Z,99811.61
2018-05-29T21:46:00.713Z,99818.62
2018-05-29T21:48:28.203Z,99818.67
2018-05-29T21:50:55.683Z,99817.83
2018-05-29T21:53:23.174Z,99817.00
2018-05-29T21:55:50.639Z,99817.28
2018-05-29T21:58:18.139Z,99816.95
2018-05-29T22:00:45.610Z,99820.42
2018-05-29T22:03:13.101Z,99824.28
2018-05-29T22:05:40.575Z,99827.03
2018-05-29T22:08:08.079Z,99828.64
2018-05-29T22:10:35.563Z,99835.05
2018-05-29T22:13:03.052Z,99838.08
2018-05-29T22:15:30.525Z,99838.65
2018-05-29T22:17:57.998Z,99837.94
2018-05-29T22:20:25.510Z,99845.48
2018-05-29T22:22:52.986Z,99847.87
2018-05-29T22:25:20.473Z,99858.14
2018-05-29T22:27:47.947Z,99852.41
2018-05-29T22:30:15.460Z,99863.33
2018-05-29T22:32:42.934Z,99871.40
2018-05-29T22:35:10.431Z,99871.91
2018-05-29T22:37:37.921Z,99871.80
2018-05-29T22:40:05.418Z,99873.11
2018-05-29T22:42:32.886Z,99874.84
2018-05-29T22:45:00.378Z,99869.91
2018-05-29T22:47:27.871Z,99871.70
2018-05-29T22:49:55.378Z,99857.22
2018-05-29T22:52:22.855Z,99861.21
2018-05-29T22:54:50.330Z,99857.09
2018-05-29T22:57:17.857Z,99858.70
2018-05-29T22:59:45.338Z,99852.17
2018-05-29T23:02:12.833Z,99850.86
2018-05-29T23:04:40.319Z,99863.81
2018-05-29T23:07:07.819Z,99869.41
2018-05-29T23:09:35.295Z,99867.51
2018-05-29T23:12:02.786Z,99875.56
2018-05-29T23:14:30.262Z,99868.70
2018-05-29T23:16:57.749Z,99867.51
2018-05-29T23:19:25.262Z,99874.29
2018-05-29T23:21:52.746Z,99870.95
2018-05-29T23:24:20.218Z,99877.94
2018-05-29T23:26:47.685Z,99875.58
2018-05-29T23:29:15.187Z,99877.63
2018-05-29T23:31:42.666Z,99878.56
2018-05-29T23:34:10.168Z,99885.58
2018-05-29T23:36:37.646Z,99878.13
2018-05-29T23:39:06.020Z,99880.08
2018-05-29T23:41:33.514Z,99880.31
2018-05-29T23:44:01.010Z,99880.38
2018-05-29T23:46:28.481Z,99881.55
2018-05-29T23:48:55.971Z,99891.16
2018-05-29T23:51:23.468Z,99883.32
2018-05-29T23:53:50.958Z,99884.88
2018-05-29T23:56:18.429Z,99878.00
2018-05-29T23:58:45.941Z,99879.05
